Time;durP1;ratioP1;P1;durP2;ratioP2;P2;SDS_P1;SDS_P2;PMS_P1;PMS_P2;Temp;Humidity;BMP_temperature;BMP_pressure;BME280_temperature;BME280_humidity;BME280_pressure;Samples;Min_cycle;Max_cycle;Signal;HPM_P1;HPM_P2
2022/09/23 00:01:13;;;;;;;4.10;2.83;;;13.20;78.50;;;;;;5021579;28;20811;-69
2022/09/23 00:03:41;;;;;;;4.03;3.33;;;13.20;78.70;;;;;;5024447;28;20201;-69
2022/09/23 00:06:11;;;;;;;3.20;2.87;;;13.10;79.10;;;;;;5023216;28;20649;-69
2022/09/23 00:08:39;;;;;;;6.13;2.67;;;13.10;79.60;;;;;;5022977;28;20205;-69
2022/09/23 00:11:08;;;;;;;4.73;2.93;;;13.10;79.80;;;;;;5022862;28;20213;-69
2022/09/23 00:13:37;;;;;;;3.07;2.63;;;13.10;80.10;;;;;;5027216;28;20218;-69
2022/09/23 00:16:07;;;;;;;3.40;2.87;;;13.10;80.30;;;;;;5023741;28;20299;-69
2022/09/23 00:18:34;;;;;;;6.27;2.80;;;13.10;80.40;;;;;;5018674;28;20240;-69
2022/09/23 00:21:05;;;;;;;3.97;2.90;;;13.10;80.40;;;;;;5019194;28;20229;-69
2022/09/23 00:23:33;;;;;;;3.43;2.87;;;13.10;80.40;;;;;;5022964;28;20240;-68
2022/09/23 00:26:01;;;;;;;5.73;3.23;;;13.10;80.40;;;;;;5018581;28;20241;-69
2022/09/23 00:28:29;;;;;;;3.80;3.23;;;13.10;80.40;;;;;;5021129;28;20201;-69
2022/09/23 00:31:00;;;;;;;3.60;3.30;;;13.10;80.70;;;;;;5026775;28;20214;-69
2022/09/23 00:33:28;;;;;;;5.00;3.03;;;13.00;80.70;;;;;;5021555;28;20210;-68
2022/09/23 00:36:00;;;;;;;4.80;2.80;;;13.00;80.80;;;;;;5028426;28;20382;-68
2022/09/23 00:38:28;;;;;;;7.43;2.90;;;13.10;80.90;;;;;;5022761;28;20215;-68
2022/09/23 00:40:54;;;;;;;9.50;2.97;;;13.00;80.90;;;;;;5019414;28;20250;-69
2022/09/23 00:43:40;;;;;;;3.67;3.03;;;13.00;80.90;;;;;;5029927;28;20337;-69
2022/09/23 00:46:11;;;;;;;7.30;2.70;;;13.00;81.00;;;;;;5026637;28;20562;-69
2022/09/23 00:48:41;;;;;;;3.20;2.90;;;13.00;80.90;;;;;;5030779;28;20203;-69
2022/09/23 00:51:13;;;;;;;4.20;2.70;;;13.00;80.80;;;;;;5025728;28;20263;-68
2022/09/23 00:53:40;;;;;;;4.33;2.77;;;13.00;80.60;;;;;;5024503;28;20209;-69
2022/09/23 00:56:10;;;;;;;3.23;2.93;;;13.00;80.60;;;;;;5025534;28;20549;-68
2022/09/23 00:58:40;;;;;;;6.47;3.37;;;13.00;80.70;;;;;;5028378;28;20204;-68
2022/09/23 01:01:07;;;;;;;4.20;3.00;;;13.00;80.70;;;;;;5029378;28;20225;-69
2022/09/23 01:03:34;;;;;;;3.77;3.47;;;13.00;80.90;;;;;;5021532;28;20202;-68
2022/09/23 01:06:01;;;;;;;4.60;2.83;;;13.00;81.00;;;;;;5030137;28;20239;-69
2022/09/23 01:08:30;;;;;;;4.23;3.37;;;12.90;81.10;;;;;;5023889;28;20210;-68
2022/09/23 01:11:33;;;;;;;6.07;3.20;;;12.90;81.00;;;;;;5028722;28;20208;-68
2022/09/23 01:14:33;;;;;;;3.60;2.77;;;12.90;81.20;;;;;;5021498;28;20264;-69
2022/09/23 01:17:22;;;;;;;3.40;2.53;;;12.90;81.20;;;;;;5024364;28;20205;-68
2022/09/23 01:20:01;;;;;;;3.90;3.10;;;12.90;81.00;;;;;;5024610;28;20293;-68
2022/09/23 01:22:39;;;;;;;7.87;3.53;;;12.90;80.90;;;;;;5034560;28;20258;-69
2022/09/23 01:25:32;;;;;;;3.77;3.40;;;12.80;80.90;;;;;;5025748;28;20222;-68
2022/09/23 01:28:37;;;;;;;7.53;3.37;;;12.80;81.10;;;;;;5029277;28;20197;-68
2022/09/23 01:31:07;;;;;;;5.60;3.40;;;12.80;81.20;;;;;;5022312;28;20244;-69
2022/09/23 01:33:58;;;;;;;4.30;3.83;;;12.70;81.30;;;;;;5032582;28;20214;-69
2022/09/23 01:36:28;;;;;;;10.97;3.80;;;12.70;81.50;;;;;;5025123;28;20208;-68
2022/09/23 01:39:08;;;;;;;4.47;3.53;;;12.70;81.70;;;;;;5023269;28;20207;-68
2022/09/23 01:42:16;;;;;;;8.50;4.37;;;12.70;81.90;;;;;;5027764;28;20232;-68
2022/09/23 01:44:56;;;;;;;6.87;3.83;;;12.70;82.10;;;;;;5026093;28;20221;-68
2022/09/23 01:47:37;;;;;;;6.17;3.80;;;12.60;82.10;;;;;;5024679;28;20539;-68
2022/09/23 01:50:55;;;;;;;7.03;3.77;;;12.60;82.20;;;;;;5023448;28;20213;-69
2022/09/23 01:53:00;;;;;;;4.47;3.50;;;12.60;82.30;;;;;;5023244;28;20204;-68
2022/09/23 01:55:32;;;;;;;6.80;3.50;;;12.50;82.50;;;;;;5027225;28;20208;-68
2022/09/23 01:58:26;;;;;;;4.93;3.70;;;12.50;82.50;;;;;;5027638;28;20208;-68
2022/09/23 02:01:00;;;;;;;6.97;4.17;;;12.50;82.50;;;;;;5023220;28;20233;-69
2022/09/23 02:03:54;;;;;;;4.57;3.60;;;12.50;82.50;;;;;;5026962;28;20204;-68
2022/09/23 02:06:31;;;;;;;4.17;3.30;;;12.50;83.10;;;;;;5026453;28;20685;-68
2022/09/23 02:09:02;;;;;;;6.07;3.70;;;12.40;82.40;;;;;;5021283;28;20635;-68
2022/09/23 02:11:35;;;;;;;4.80;3.67;;;12.40;82.50;;;;;;5023752;28;20209;-68
2022/09/23 02:14:15;;;;;;;5.83;3.70;;;12.30;82.50;;;;;;5024507;28;20227;-68
2022/09/23 02:16:48;;;;;;;3.93;3.43;;;12.30;82.50;;;;;;5024371;28;20202;-68
2022/09/23 02:19:27;;;;;;;7.27;3.47;;;12.20;82.50;;;;;;5021574;28;20251;-68
2022/09/23 02:22:02;;;;;;;5.97;2.97;;;12.20;82.80;;;;;;5022629;28;20899;-68
2022/09/23 02:24:33;;;;;;;5.03;3.37;;;12.10;83.00;;;;;;5025916;28;20208;-68
2022/09/23 02:27:33;;;;;;;4.00;3.60;;;12.10;83.10;;;;;;5025375;28;20204;-68
2022/09/23 02:30:03;;;;;;;6.53;3.23;;;12.10;83.20;;;;;;5023502;28;20615;-68
2022/09/23 02:33:07;;;;;;;3.47;3.10;;;12.10;83.10;;;;;;5031910;28;20596;-69
2022/09/23 02:35:43;;;;;;;3.57;3.27;;;12.00;83.20;;;;;;5027065;28;20206;-69
2022/09/23 02:38:37;;;;;;;3.70;2.90;;;12.00;83.30;;;;;;5011388;28;20274;-69
2022/09/23 02:41:13;;;;;;;7.67;3.80;;;12.00;83.20;;;;;;5023438;28;20213;-68
2022/09/23 02:43:44;;;;;;;7.33;3.30;;;12.00;83.00;;;;;;5015955;28;20256;-68
2022/09/23 02:46:11;;;;;;;5.67;3.30;;;11.90;83.00;;;;;;5022660;28;20268;-68
2022/09/23 02:48:48;;;;;;;8.83;3.53;;;11.90;82.80;;;;;;5020286;28;20205;-68
2022/09/23 02:51:15;;;;;;;5.63;3.33;;;11.90;82.90;;;;;;5025180;28;20235;-68
2022/09/23 02:53:42;;;;;;;3.60;3.30;;;11.80;82.90;;;;;;5021774;28;20297;-69
2022/09/23 02:56:15;;;;;;;5.97;3.60;;;11.80;83.10;;;;;;5021201;28;20665;-69
2022/09/23 02:58:42;;;;;;;6.70;3.20;;;11.80;83.40;;;;;;5029413;28;20256;-68
2022/09/23 03:01:30;;;;;;;7.17;3.77;;;11.80;83.50;;;;;;5020849;28;20231;-68
2022/09/23 03:04:15;;;;;;;6.03;3.20;;;11.80;83.80;;;;;;5025912;28;20199;-68
2022/09/23 03:07:02;;;;;;;5.13;4.20;;;11.80;84.10;;;;;;5019968;28;20205;-68
2022/09/23 03:09:34;;;;;;;4.03;3.47;;;11.80;84.30;;;;;;5026937;28;20293;-68
2022/09/23 03:12:31;;;;;;;5.67;3.57;;;11.90;84.50;;;;;;5039651;28;20205;-68
2022/09/23 03:15:14;;;;;;;7.97;3.93;;;11.90;84.70;;;;;;5024396;28;20211;-68
2022/09/23 03:18:07;;;;;;;6.10;3.63;;;11.90;84.60;;;;;;5018116;28;20203;-68
2022/09/23 03:20:43;;;;;;;5.00;4.30;;;11.90;85.20;;;;;;5022887;28;20237;-68
2022/09/23 03:23:14;;;;;;;8.77;4.13;;;11.90;84.50;;;;;;5021604;28;20543;-68
2022/09/23 03:25:44;;;;;;;7.80;4.50;;;11.90;84.40;;;;;;5029930;28;20204;-68
2022/09/23 03:28:13;;;;;;;5.37;4.43;;;11.90;84.50;;;;;;5029151;28;20230;-69
2022/09/23 03:30:42;;;;;;;8.30;4.73;;;11.90;84.70;;;;;;5024721;28;20284;-67
2022/09/23 03:33:14;;;;;;;5.23;4.43;;;11.90;84.80;;;;;;5021505;28;20568;-68
2022/09/23 03:38:49;;;;;;;6.73;4.80;;;11.90;84.90;;;;;;5025668;28;20204;-68
2022/09/23 03:41:27;;;;;;;7.57;5.13;;;11.80;84.80;;;;;;5025580;28;20251;-68
2022/09/23 03:43:57;;;;;;;8.60;4.77;;;11.80;84.70;;;;;;5038733;28;20253;-68
2022/09/23 03:46:28;;;;;;;5.20;4.60;;;11.80;84.80;;;;;;5019650;28;20266;-68
2022/09/23 03:49:03;;;;;;;5.77;4.63;;;11.80;84.90;;;;;;5028942;28;20206;-68
2022/09/23 03:51:30;;;;;;;5.67;4.10;;;11.80;84.80;;;;;;5022083;28;20215;-69
2022/09/23 03:53:56;;;;;;;5.03;4.50;;;11.80;84.70;;;;;;5026087;28;20209;-68
2022/09/23 03:56:23;;;;;;;6.30;4.17;;;11.80;84.70;;;;;;5032978;28;20626;-68
2022/09/23 03:58:50;;;;;;;5.27;4.00;;;11.90;84.70;;;;;;5024950;28;20212;-68
2022/09/23 04:01:17;;;;;;;4.40;3.87;;;11.80;84.60;;;;;;5019038;28;20239;-68
2022/09/23 04:03:44;;;;;;;4.97;3.77;;;11.80;84.40;;;;;;5026250;28;20232;-68
2022/09/23 04:06:12;;;;;;;4.93;4.03;;;11.80;84.30;;;;;;5022212;28;20245;-68
2022/09/23 04:08:39;;;;;;;7.23;4.60;;;11.80;84.20;;;;;;5027427;28;20518;-68
2022/09/23 04:11:06;;;;;;;6.43;4.20;;;11.80;84.80;;;;;;5020168;28;20286;-68
2022/09/23 04:13:33;;;;;;;7.27;4.17;;;11.80;84.10;;;;;;5026402;28;20224;-68
2022/09/23 04:16:00;;;;;;;5.37;4.20;;;11.80;84.10;;;;;;5026629;28;20647;-68
2022/09/23 04:18:27;;;;;;;4.50;4.10;;;11.80;84.10;;;;;;5026684;28;20276;-68
2022/09/23 04:21:01;;;;;;;4.73;4.10;;;11.70;84.10;;;;;;5023430;28;20228;-68
2022/09/23 04:23:28;;;;;;;4.27;3.87;;;11.80;84.00;;;;;;5021406;28;20202;-68
2022/09/23 04:25:55;;;;;;;4.17;3.77;;;11.70;83.90;;;;;;5027133;28;20204;-68
2022/09/23 04:28:22;;;;;;;7.00;4.30;;;11.70;84.00;;;;;;5025375;28;20266;-68
2022/09/23 04:30:50;;;;;;;5.77;4.17;;;11.70;84.10;;;;;;5025056;28;20208;-68
2022/09/23 04:33:17;;;;;;;4.73;4.17;;;11.60;84.00;;;;;;5036577;28;20209;-68
2022/09/23 04:35:49;;;;;;;5.37;4.03;;;11.60;84.70;;;;;;5024756;28;20546;-68
2022/09/23 04:38:17;;;;;;;6.13;4.23;;;11.60;84.00;;;;;;5012053;28;20233;-68
2022/09/23 04:40:44;;;;;;;6.77;4.20;;;11.60;84.00;;;;;;5025441;28;20535;-68
2022/09/23 04:43:13;;;;;;;5.23;4.17;;;11.60;84.00;;;;;;5025470;28;20254;-68
2022/09/23 04:45:41;;;;;;;4.97;3.93;;;11.60;84.00;;;;;;5028965;28;20270;-68
2022/09/23 04:48:09;;;;;;;4.17;3.77;;;11.50;84.00;;;;;;5026208;28;20700;-68
2022/09/23 04:50:36;;;;;;;4.10;3.70;;;11.50;83.90;;;;;;5030776;28;20274;-68
2022/09/23 04:53:04;;;;;;;4.80;4.40;;;11.50;83.90;;;;;;5019574;28;20213;-68
2022/09/23 04:55:31;;;;;;;5.77;4.20;;;11.50;84.10;;;;;;5023129;28;20217;-68
2022/09/23 04:57:58;;;;;;;5.23;4.47;;;11.50;84.20;;;;;;5026499;28;20249;-68
2022/09/23 05:00:27;;;;;;;4.80;4.23;;;11.50;84.20;;;;;;5021365;28;20221;-68
2022/09/23 05:02:54;;;;;;;6.83;5.37;;;11.50;84.30;;;;;;5027283;28;20246;-68
2022/09/23 05:05:23;;;;;;;6.50;5.20;;;11.50;84.30;;;;;;5024762;28;20255;-68
2022/09/23 05:07:53;;;;;;;8.93;5.27;;;11.50;84.30;;;;;;5023209;28;20541;-68
2022/09/23 05:10:21;;;;;;;7.60;5.40;;;11.50;84.20;;;;;;5023194;28;20206;-68
2022/09/23 05:12:48;;;;;;;9.27;5.80;;;11.50;84.10;;;;;;5018588;28;20306;-69
2022/09/23 05:15:20;;;;;;;8.63;5.73;;;11.50;84.10;;;;;;5021533;28;20225;-68
2022/09/23 05:17:47;;;;;;;6.23;5.33;;;11.50;83.90;;;;;;5023387;28;20246;-68
2022/09/23 05:20:14;;;;;;;6.83;5.20;;;11.50;83.90;;;;;;5032517;28;20242;-68
2022/09/23 05:22:41;;;;;;;8.80;5.53;;;11.50;83.90;;;;;;5029380;28;20208;-69
2022/09/23 05:25:08;;;;;;;8.80;6.10;;;11.50;83.90;;;;;;5020980;28;20238;-68
2022/09/23 05:27:35;;;;;;;11.80;5.13;;;11.50;83.90;;;;;;5024807;28;20527;-68
2022/09/23 05:30:02;;;;;;;7.90;5.17;;;11.50;83.90;;;;;;5025217;28;20261;-68
2022/09/23 05:32:30;;;;;;;5.63;4.97;;;11.50;83.90;;;;;;5023709;28;20214;-68
2022/09/23 05:34:57;;;;;;;13.47;5.30;;;11.50;84.00;;;;;;5020932;28;20215;-68
2022/09/23 05:37:24;;;;;;;10.07;5.60;;;11.60;84.00;;;;;;5024344;28;20195;-68
2022/09/23 05:39:51;;;;;;;7.27;5.00;;;11.60;84.20;;;;;;5022409;28;20911;-68
2022/09/23 05:42:19;;;;;;;8.60;4.93;;;11.70;84.30;;;;;;5019732;28;20699;-69
2022/09/23 05:44:46;;;;;;;7.60;4.70;;;11.80;84.30;;;;;;5025585;28;20285;-69
2022/09/23 05:47:13;;;;;;;7.40;4.87;;;11.80;84.10;;;;;;5013033;28;20208;-68
2022/09/23 05:49:40;;;;;;;5.80;4.20;;;11.90;84.10;;;;;;5027630;28;20211;-68
2022/09/23 05:52:24;;;;;;;6.50;3.87;;;12.00;83.70;;;;;;5024938;28;20236;-70
2022/09/23 05:54:52;;;;;;;3.63;3.33;;;12.10;83.50;;;;;;5029873;28;20200;-71
2022/09/23 05:57:20;;;;;;;3.97;3.57;;;12.20;83.30;;;;;;5021466;28;20200;-72
2022/09/23 05:59:47;;;;;;;6.07;2.90;;;12.30;83.00;;;;;;5008780;28;20219;-71
2022/09/23 06:02:14;;;;;;;3.50;3.20;;;12.40;82.50;;;;;;5023396;28;20254;-71
2022/09/23 06:04:42;;;;;;;4.17;2.90;;;12.60;82.30;;;;;;5023585;28;20213;-71
2022/09/23 06:07:09;;;;;;;3.87;2.80;;;12.70;82.00;;;;;;5028278;28;20259;-71
2022/09/23 06:09:36;;;;;;;6.00;3.17;;;12.80;81.70;;;;;;5023207;28;20198;-71
2022/09/23 06:12:05;;;;;;;5.53;2.97;;;12.80;81.40;;;;;;5024816;28;20689;-71
2022/09/23 06:14:32;;;;;;;3.17;2.87;;;13.00;81.30;;;;;;5022113;28;20259;-72
2022/09/23 06:16:59;;;;;;;5.87;2.47;;;13.00;81.20;;;;;;5028024;28;20257;-71
2022/09/23 06:19:26;;;;;;;2.80;2.50;;;13.20;81.30;;;;;;5024797;28;20243;-71
2022/09/23 06:21:53;;;;;;;3.13;2.70;;;13.30;81.20;;;;;;5023682;28;20251;-71
2022/09/23 06:24:20;;;;;;;4.00;2.30;;;13.30;80.90;;;;;;5029127;28;20270;-71
2022/09/23 06:26:55;;;;;;;2.97;2.40;;;13.50;80.70;;;;;;5027604;28;20216;-71
2022/09/23 06:29:23;;;;;;;2.77;2.47;;;13.50;80.50;;;;;;5027107;28;20208;-71
2022/09/23 06:31:50;;;;;;;4.17;3.23;;;13.60;80.20;;;;;;5022054;28;20211;-71
2022/09/23 06:34:18;;;;;;;4.53;2.40;;;13.70;80.00;;;;;;5029626;28;20239;-71
2022/09/23 06:36:46;;;;;;;2.60;2.40;;;13.80;79.80;;;;;;5027856;28;20202;-71
2022/09/23 06:39:14;;;;;;;2.70;2.50;;;13.90;79.50;;;;;;5006504;28;20664;-71
2022/09/23 06:41:42;;;;;;;5.10;2.67;;;14.00;79.40;;;;;;5028729;28;20267;-71
2022/09/23 06:44:15;;;;;;;6.70;2.23;;;14.00;79.10;;;;;;5028965;28;20687;-71
2022/09/23 06:46:43;;;;;;;4.60;2.37;;;14.20;78.80;;;;;;5024069;28;20278;-71
2022/09/23 06:49:11;;;;;;;2.77;2.50;;;14.20;78.40;;;;;;5026100;28;20505;-71
2022/09/23 06:51:39;;;;;;;4.43;2.87;;;14.30;78.30;;;;;;5025095;28;20224;-71
2022/09/23 06:54:06;;;;;;;2.07;1.83;;;14.40;78.20;;;;;;5026976;28;20208;-71
2022/09/23 06:56:33;;;;;;;1.90;1.80;;;14.50;77.90;;;;;;5027443;28;20290;-71
2022/09/23 06:59:08;;;;;;;2.27;1.70;;;14.60;77.40;;;;;;5019350;28;20247;-71
2022/09/23 07:01:35;;;;;;;2.97;2.00;;;14.70;77.10;;;;;;5020878;28;20247;-71
2022/09/23 07:04:02;;;;;;;3.93;1.93;;;14.70;76.60;;;;;;5021338;28;20208;-71
2022/09/23 07:06:29;;;;;;;3.50;2.00;;;14.80;76.20;;;;;;5027816;28;20285;-71
2022/09/23 07:08:56;;;;;;;4.13;2.10;;;14.90;76.00;;;;;;5028844;28;20241;-71
2022/09/23 07:11:23;;;;;;;2.50;2.30;;;15.00;75.90;;;;;;5022425;28;20236;-71
2022/09/23 07:13:50;;;;;;;9.40;2.60;;;15.00;75.80;;;;;;5024033;28;20213;-71
2022/09/23 07:16:17;;;;;;;3.80;2.47;;;15.20;75.90;;;;;;5024998;28;20210;-72
2022/09/23 07:18:45;;;;;;;2.40;2.20;;;15.20;75.70;;;;;;5011432;28;20265;-72
2022/09/23 07:21:15;;;;;;;2.87;2.40;;;15.30;75.60;;;;;;5024309;28;20297;-72
2022/09/23 07:23:48;;;;;;;3.27;2.10;;;15.40;76.20;;;;;;5022424;28;20694;-72
2022/09/23 07:26:18;;;;;;;3.77;2.80;;;15.50;75.60;;;;;;5026995;28;20202;-71
2022/09/23 07:28:45;;;;;;;8.80;2.60;;;15.70;75.20;;;;;;5018571;28;20263;-72
2022/09/23 07:31:16;;;;;;;4.77;2.47;;;15.80;74.60;;;;;;5020668;28;20218;-72
2022/09/23 07:34:01;;;;;;;3.50;2.10;;;16.00;74.30;;;;;;5021621;28;20929;-72
2022/09/23 07:36:31;;;;;;;7.13;2.33;;;16.20;73.80;;;;;;5020827;28;20678;-73
2022/09/23 07:39:02;;;;;;;3.27;2.83;;;16.40;73.40;;;;;;5025554;28;20242;-72
2022/09/23 07:41:31;;;;;;;2.87;2.13;;;16.50;72.70;;;;;;5022222;28;20227;-73
2022/09/23 07:43:59;;;;;;;8.13;3.37;;;16.70;71.80;;;;;;5025401;28;20231;-72
2022/09/23 07:46:29;;;;;;;4.07;2.87;;;17.00;71.10;;;;;;5025264;28;20658;-72
2022/09/23 07:48:56;;;;;;;8.77;2.83;;;17.10;70.40;;;;;;5029590;28;20261;-73
2022/09/23 07:51:27;;;;;;;4.07;2.80;;;17.40;70.00;;;;;;5032757;28;20204;-72
2022/09/23 07:54:00;;;;;;;7.00;2.87;;;17.60;69.30;;;;;;5026730;28;20199;-73
2022/09/23 07:56:28;;;;;;;6.87;3.00;;;17.80;68.50;;;;;;5025549;28;20223;-72
2022/09/23 07:58:58;;;;;;;3.10;2.80;;;18.00;67.70;;;;;;5024235;28;20237;-73
2022/09/23 08:01:31;;;;;;;6.53;3.00;;;18.20;67.10;;;;;;5025408;28;20232;-72
2022/09/23 08:04:20;;;;;;;4.23;3.10;;;18.40;66.50;;;;;;5021207;28;20458;-72
2022/09/23 08:06:49;;;;;;;3.70;2.97;;;18.60;65.60;;;;;;5033180;28;20201;-72
2022/09/23 08:09:18;;;;;;;4.13;3.20;;;18.70;65.00;;;;;;5027436;28;20224;-73
2022/09/23 08:11:45;;;;;;;6.67;3.53;;;18.90;64.70;;;;;;5026384;28;20202;-73
2022/09/23 08:14:14;;;;;;;3.37;3.07;;;19.10;64.10;;;;;;5028277;28;20205;-73
2022/09/23 08:16:41;;;;;;;4.47;2.77;;;19.20;63.30;;;;;;5027660;28;20240;-73
2022/09/23 08:19:08;;;;;;;3.20;2.90;;;19.40;62.70;;;;;;5023161;28;20241;-72
2022/09/23 08:21:38;;;;;;;4.10;3.07;;;19.60;62.00;;;;;;5022760;28;20228;-74
2022/09/23 08:24:12;;;;;;;4.30;2.53;;;19.70;61.60;;;;;;5026338;28;20200;-73
2022/09/23 08:26:40;;;;;;;7.30;3.03;;;19.80;60.70;;;;;;5027617;28;20233;-73
2022/09/23 08:29:10;;;;;;;3.03;2.73;;;20.00;60.50;;;;;;5030482;28;20271;-73
2022/09/23 08:31:37;;;;;;;3.27;2.30;;;20.10;60.00;;;;;;5029224;28;20281;-73
2022/09/23 08:34:05;;;;;;;6.50;2.67;;;20.20;59.60;;;;;;5025197;28;20201;-73
2022/09/23 08:36:33;;;;;;;4.27;2.60;;;20.40;58.80;;;;;;5029153;28;20541;-74
2022/09/23 08:39:00;;;;;;;2.83;2.10;;;20.50;57.90;;;;;;5030038;28;20205;-73
2022/09/23 08:42:03;;;;;;;7.50;2.37;;;20.60;57.40;;;;;;5024597;28;20234;-73
2022/09/23 08:44:52;;;;;;;4.10;2.27;;;20.70;56.70;;;;;;5028184;28;20538;-73
2022/09/23 08:47:39;;;;;;;4.23;2.20;;;20.90;56.40;;;;;;5028940;28;20210;-73
2022/09/23 08:50:25;;;;;;;3.40;2.27;;;21.00;56.90;;;;;;5024269;28;20206;-74
2022/09/23 08:53:02;;;;;;;9.23;3.10;;;21.00;55.90;;;;;;5028782;28;20210;-74
2022/09/23 08:55:38;;;;;;;4.20;1.97;;;21.10;56.20;;;;;;5023929;28;20692;-74
2022/09/23 08:58:26;;;;;;;2.30;2.10;;;21.20;55.00;;;;;;5024185;28;20215;-73
2022/09/23 09:01:25;;;;;;;8.10;1.73;;;21.30;55.00;;;;;;5025229;28;20293;-74
2022/09/23 09:03:56;;;;;;;4.30;1.50;;;21.30;54.80;;;;;;5024540;28;20208;-73
2022/09/23 09:06:44;;;;;;;3.43;1.43;;;21.40;54.70;;;;;;5028552;28;20276;-74
2022/09/23 09:09:31;;;;;;;6.30;1.57;;;21.60;55.20;;;;;;5028846;28;20253;-73
2022/09/23 09:12:24;;;;;;;6.30;1.53;;;21.70;53.40;;;;;;5025074;28;20212;-73
2022/09/23 09:15:02;;;;;;;1.77;1.53;;;21.80;53.60;;;;;;5022074;28;20222;-74
2022/09/23 09:17:38;;;;;;;1.50;1.30;;;21.90;53.60;;;;;;5035375;28;20207;-73
2022/09/23 09:20:05;;;;;;;3.87;1.23;;;22.00;53.40;;;;;;5019104;28;20236;-73
2022/09/23 09:22:47;;;;;;;1.77;1.30;;;22.10;53.10;;;;;;5029848;28;20289;-73
2022/09/23 09:25:43;;;;;;;3.67;1.60;;;22.20;51.60;;;;;;5027020;28;20203;-74
2022/09/23 09:28:21;;;;;;;6.73;2.20;;;22.20;51.80;;;;;;5029619;28;20606;-73
2022/09/23 09:30:55;;;;;;;2.17;1.60;;;22.20;52.00;;;;;;5024843;28;20195;-72
2022/09/23 09:33:50;;;;;;;3.03;1.50;;;22.30;52.60;;;;;;5028192;28;20269;-74
2022/09/23 09:36:41;;;;;;;5.20;1.33;;;22.50;52.90;;;;;;5026816;28;20616;-72
2022/09/23 09:39:12;;;;;;;2.40;1.30;;;22.60;52.90;;;;;;5025508;28;20195;-73
2022/09/23 09:41:49;;;;;;;6.37;1.70;;;22.80;52.50;;;;;;5025989;28;20525;-74
2022/09/23 09:44:34;;;;;;;8.43;3.70;;;22.90;51.60;;;;;;5031804;28;20231;-73
2022/09/23 09:47:18;;;;;;;7.23;3.73;;;23.00;51.20;;;;;;5022764;28;20200;-74
2022/09/23 09:49:50;;;;;;;2.73;1.53;;;23.00;50.60;;;;;;5026128;28;20229;-73
2022/09/23 09:52:28;;;;;;;1.60;1.50;;;23.10;49.30;;;;;;5027192;28;20207;-73
2022/09/23 09:55:14;;;;;;;2.00;1.27;;;23.00;47.70;;;;;;5022291;28;20289;-73
2022/09/23 09:58:04;;;;;;;1.63;1.10;;;22.90;49.40;;;;;;5029887;28;20204;-73
2022/09/23 10:00:41;;;;;;;2.13;1.13;;;22.80;48.90;;;;;;5036797;28;20696;-74
2022/09/23 10:03:12;;;;;;;1.83;1.33;;;22.80;48.80;;;;;;5022521;28;20230;-73
2022/09/23 10:05:45;;;;;;;1.27;0.80;;;22.80;50.00;;;;;;5023682;28;20636;-73
2022/09/23 10:08:36;;;;;;;1.73;1.10;;;22.90;49.80;;;;;;5025862;28;20204;-73
2022/09/23 10:11:17;;;;;;;1.87;1.00;;;23.00;49.30;;;;;;5026737;28;20204;-73
2022/09/23 10:14:17;;;;;;;1.10;0.90;;;23.00;48.40;;;;;;5025978;28;20257;-73
2022/09/23 10:16:47;;;;;;;1.53;0.93;;;23.10;47.30;;;;;;5026255;28;20290;-73
2022/09/23 10:19:24;;;;;;;1.37;0.90;;;23.10;47.90;;;;;;5020847;28;20247;-73
2022/09/23 10:21:59;;;;;;;0.60;0.60;;;23.20;48.70;;;;;;5024967;28;20215;-73
2022/09/23 10:24:31;;;;;;;0.70;0.70;;;23.30;48.30;;;;;;5042303;28;20203;-73
2022/09/23 10:27:08;;;;;;;1.20;1.00;;;23.50;48.50;;;;;;5026119;28;20214;-74
2022/09/23 10:29:49;;;;;;;1.07;0.97;;;23.60;47.90;;;;;;5019174;28;20262;-73
2022/09/23 10:32:19;;;;;;;1.57;0.90;;;23.70;45.40;;;;;;5022503;28;20290;-73
2022/09/23 10:34:52;;;;;;;1.40;0.97;;;23.70;46.40;;;;;;5029572;28;20199;-75
2022/09/23 10:37:30;;;;;;;1.37;1.27;;;23.80;46.80;;;;;;5024800;28;20212;-73
2022/09/23 10:49:29;;;;;;;0.93;0.60;;;23.90;45.00;;;;;;5028776;28;20238;-72
2022/09/23 10:52:08;;;;;;;0.80;0.80;;;24.00;44.50;;;;;;5030178;28;20212;-72
2022/09/23 10:54:40;;;;;;;1.20;0.70;;;24.10;45.10;;;;;;5015851;28;20203;-73
2022/09/23 10:57:41;;;;;;;3.33;1.00;;;24.10;45.10;;;;;;5022254;28;20274;-73
2022/09/23 11:00:36;;;;;;;0.90;0.90;;;24.30;45.40;;;;;;5017942;28;20214;-74
2022/09/23 11:03:17;;;;;;;1.50;1.00;;;24.40;45.80;;;;;;5022232;28;20310;-72
2022/09/23 11:05:50;;;;;;;0.80;0.80;;;24.50;45.40;;;;;;5021800;28;20198;-73
2022/09/23 11:08:36;;;;;;;0.73;0.73;;;24.50;44.60;;;;;;5020642;28;20208;-73
2022/09/23 11:11:12;;;;;;;1.20;1.00;;;24.70;44.10;;;;;;5023774;28;20230;-73
2022/09/23 11:14:06;;;;;;;2.70;0.90;;;24.70;43.70;;;;;;5022088;28;20215;-73
2022/09/23 11:16:56;;;;;;;2.43;0.90;;;24.80;43.90;;;;;;5020026;28;20203;-73
2022/09/23 11:19:31;;;;;;;0.97;0.80;;;24.80;44.00;;;;;;5022577;28;20258;-74
2022/09/23 11:22:12;;;;;;;1.70;0.90;;;24.90;43.50;;;;;;5024955;28;20230;-72
2022/09/23 11:25:24;;;;;;;1.30;1.20;;;25.00;43.50;;;;;;5022345;28;20215;-73
2022/09/23 11:28:38;;;;;;;1.13;1.10;;;24.90;41.80;;;;;;5022168;28;20230;-74
2022/09/23 11:31:26;;;;;;;1.10;0.90;;;24.80;42.90;;;;;;5030591;28;20628;-73
2022/09/23 11:34:33;;;;;;;2.77;1.07;;;24.80;43.20;;;;;;5014784;28;20517;-73
2022/09/23 11:37:19;;;;;;;1.63;1.13;;;24.80;44.00;;;;;;5024653;28;20605;-73
2022/09/23 11:39:55;;;;;;;1.00;0.90;;;24.80;43.70;;;;;;5035907;28;20207;-73
2022/09/23 11:42:30;;;;;;;1.00;0.90;;;24.80;43.30;;;;;;5019519;28;20652;-73
2022/09/23 11:45:14;;;;;;;2.13;0.90;;;24.80;42.90;;;;;;5025436;28;20280;-73
2022/09/23 11:47:48;;;;;;;1.07;1.00;;;24.80;42.90;;;;;;5021132;28;20196;-73
2022/09/23 11:50:39;;;;;;;1.03;0.97;;;24.90;42.90;;;;;;5023459;28;20215;-74
2022/09/23 11:53:16;;;;;;;4.77;1.97;;;25.00;42.90;;;;;;5021005;28;20204;-73
2022/09/23 11:55:48;;;;;;;4.87;1.00;;;25.00;42.60;;;;;;5029491;28;20202;-73
2022/09/23 11:58:48;;;;;;;1.10;1.00;;;25.00;42.50;;;;;;5023671;28;20211;-73
2022/09/23 12:01:32;;;;;;;2.40;0.90;;;25.00;41.70;;;;;;5037491;28;20198;-73
2022/09/23 12:04:22;;;;;;;1.47;1.10;;;25.00;42.50;;;;;;5023846;28;20203;-73
2022/09/23 12:07:08;;;;;;;2.50;0.93;;;25.00;42.20;;;;;;5022600;28;20246;-72
2022/09/23 12:09:48;;;;;;;1.13;0.80;;;25.00;41.30;;;;;;5022487;28;20258;-74
2022/09/23 12:12:48;;;;;;;2.67;0.80;;;25.00;41.50;;;;;;5023452;28;20208;-73
2022/09/23 12:15:49;;;;;;;2.30;0.87;;;25.00;40.90;;;;;;5022035;28;20215;-73
2022/09/23 12:18:25;;;;;;;0.70;0.70;;;25.00;39.60;;;;;;5020488;28;20215;-73
2022/09/23 12:21:12;;;;;;;1.87;0.80;;;25.00;39.70;;;;;;5021403;28;20229;-73
2022/09/23 12:24:17;;;;;;;1.10;1.00;;;24.80;39.00;;;;;;5026046;28;20326;-73
2022/09/23 12:26:51;;;;;;;1.07;0.80;;;24.80;39.80;;;;;;5031238;28;20207;-73
2022/09/23 12:29:19;;;;;;;2.50;0.97;;;24.70;40.80;;;;;;5022201;28;20232;-73
2022/09/23 12:31:47;;;;;;;1.17;1.00;;;24.80;41.20;;;;;;5028019;28;20250;-73
2022/09/23 12:34:33;;;;;;;2.13;0.77;;;24.90;40.80;;;;;;5021505;28;20279;-72
2022/09/23 12:37:02;;;;;;;0.67;0.67;;;25.00;40.60;;;;;;5030980;28;20195;-73
2022/09/23 12:39:36;;;;;;;3.00;1.00;;;25.00;39.10;;;;;;5027509;28;20208;-71
2022/09/23 12:42:16;;;;;;;0.70;0.70;;;25.10;39.40;;;;;;5027042;28;20222;-73
2022/09/23 12:44:46;;;;;;;1.53;0.97;;;25.20;38.80;;;;;;5025927;28;20253;-72
2022/09/23 12:47:26;;;;;;;2.57;0.80;;;25.10;38.30;;;;;;5022933;28;20235;-73
2022/09/23 12:49:57;;;;;;;0.80;0.60;;;25.00;39.00;;;;;;5023542;28;20566;-74
2022/09/23 12:52:26;;;;;;;2.30;0.63;;;25.00;38.70;;;;;;5027747;28;20203;-72
2022/09/23 12:55:17;;;;;;;6.60;1.00;;;24.90;39.20;;;;;;5022277;28;20261;-73
2022/09/23 12:57:44;;;;;;;2.23;0.73;;;24.90;39.60;;;;;;5007630;28;20223;-74
2022/09/23 13:00:22;;;;;;;1.10;0.70;;;24.90;38.80;;;;;;5033438;28;20313;-72
2022/09/23 13:06:37;;;;;;;1.50;0.70;;;25.00;39.50;;;;;;5023548;28;20223;-72
2022/09/23 13:08:40;;;;;;;0.90;0.77;;;25.00;38.90;;;;;;5022667;28;20732;-73
2022/09/23 13:11:20;;;;;;;0.63;0.63;;;25.00;38.90;;;;;;5032877;28;20694;-72
2022/09/23 13:13:49;;;;;;;3.33;0.87;;;25.00;38.70;;;;;;5031246;28;20195;-73
2022/09/23 13:16:30;;;;;;;1.73;1.07;;;25.00;39.00;;;;;;5023332;28;20208;-73
2022/09/23 13:19:01;;;;;;;12.83;1.10;;;25.00;39.00;;;;;;5029176;28;20238;-73
2022/09/23 13:21:44;;;;;;;1.07;0.80;;;25.10;38.40;;;;;;5033415;28;20226;-74
2022/09/23 13:24:30;;;;;;;2.40;0.80;;;25.00;38.30;;;;;;5042299;28;20236;-74
2022/09/23 13:27:26;;;;;;;2.03;0.83;;;25.00;39.00;;;;;;5023734;28;20647;-73
2022/09/23 13:30:02;;;;;;;3.13;0.97;;;25.00;39.10;;;;;;5027675;28;20286;-74
2022/09/23 13:32:43;;;;;;;1.00;0.87;;;24.90;38.90;;;;;;5011355;28;20212;-73
2022/09/23 13:35:15;;;;;;;0.63;0.63;;;24.90;38.60;;;;;;5023806;28;20576;-73
2022/09/23 13:37:47;;;;;;;1.47;1.13;;;24.90;39.30;;;;;;5025101;28;20270;-73
2022/09/23 13:40:23;;;;;;;1.40;0.90;;;24.80;39.80;;;;;;5033198;28;20207;-73
2022/09/23 13:42:57;;;;;;;1.93;1.10;;;24.90;40.20;;;;;;5026895;28;20659;-72